Thule Air Base, Greenland
Current Conditions -  °F | °C
As of 6:58 PM on Thursday 23 Oct 2014 (Local Time) from BGTL Reporting Station
Clear Clear  
Wind Chill: 11°   Ceiling: Unl
Heat Index: 11°   Visibility: 6mi
Dew Point: -1°   Wind: 0mph
Humidity: 59%   Direction: NA
Pressure: 29.51"   Gusts: NA
Location:  76.53°N, 68.7°W
Report Text: BGTL 232158Z AUTO 00000KT 9999 CLR M12/M18 A2951 RMK AO2 SLP981 T11171183 $
Loading
Personal Weather Stations






























Interactive Weather Map
Tropical Storm Tracking
New forecast layout! Learn more

10-Day Weather Forecast

Advertisements
Track Severe Weather on mobile